sensor_id;sensor_type;location;lat;lon;timestamp;P1;durP1;ratioP1;P2;durP2;ratioP2
55063;SDS011;40963;52.168;21.296;2023-07-13T00:02:16;23.95;;;14.48;;
55063;SDS011;40963;52.168;21.296;2023-07-13T00:04:41;20.08;;;14.48;;
55063;SDS011;40963;52.168;21.296;2023-07-13T00:07:07;21.45;;;14.70;;
55063;SDS011;40963;52.168;21.296;2023-07-13T00:09:33;23.33;;;14.73;;
55063;SDS011;40963;52.168;21.296;2023-07-13T00:11:59;20.35;;;13.95;;
55063;SDS011;40963;52.168;21.296;2023-07-13T00:14:25;22.17;;;15.43;;
55063;SDS011;40963;52.168;21.296;2023-07-13T00:16:52;21.33;;;15.10;;
55063;SDS011;40963;52.168;21.296;2023-07-13T00:19:18;25.38;;;15.45;;
55063;SDS011;40963;52.168;21.296;2023-07-13T00:21:43;19.42;;;15.00;;
55063;SDS011;40963;52.168;21.296;2023-07-13T00:24:10;20.27;;;15.02;;
55063;SDS011;40963;52.168;21.296;2023-07-13T00:26:38;22.48;;;12.80;;
55063;SDS011;40963;52.168;21.296;2023-07-13T00:29:05;19.60;;;14.60;;
55063;SDS011;40963;52.168;21.296;2023-07-13T00:31:34;23.90;;;13.82;;
55063;SDS011;40963;52.168;21.296;2023-07-13T00:34:00;24.17;;;14.98;;
55063;SDS011;40963;52.168;21.296;2023-07-13T00:36:26;21.05;;;14.93;;
55063;SDS011;40963;52.168;21.296;2023-07-13T00:38:54;21.00;;;14.98;;
55063;SDS011;40963;52.168;21.296;2023-07-13T00:41:20;22.70;;;14.55;;
55063;SDS011;40963;52.168;21.296;2023-07-13T00:43:45;23.42;;;14.77;;
55063;SDS011;40963;52.168;21.296;2023-07-13T00:46:14;20.27;;;15.18;;
55063;SDS011;40963;52.168;21.296;2023-07-13T00:48:46;22.67;;;15.43;;
55063;SDS011;40963;52.168;21.296;2023-07-13T00:51:13;21.90;;;15.02;;
55063;SDS011;40963;52.168;21.296;2023-07-13T00:53:43;21.73;;;15.10;;
55063;SDS011;40963;52.168;21.296;2023-07-13T00:56:09;21.50;;;14.60;;
55063;SDS011;40963;52.168;21.296;2023-07-13T00:58:35;22.40;;;14.82;;
55063;SDS011;40963;52.168;21.296;2023-07-13T01:01:01;23.20;;;14.98;;
55063;SDS011;40963;52.168;21.296;2023-07-13T01:03:27;21.75;;;13.93;;
55063;SDS011;40963;52.168;21.296;2023-07-13T01:05:54;22.83;;;14.05;;
55063;SDS011;40963;52.168;21.296;2023-07-13T01:08:21;20.98;;;14.18;;
55063;SDS011;40963;52.168;21.296;2023-07-13T01:10:54;21.65;;;14.48;;
55063;SDS011;40963;52.168;21.296;2023-07-13T01:13:20;25.15;;;14.35;;
55063;SDS011;40963;52.168;21.296;2023-07-13T01:15:48;30.17;;;14.13;;
55063;SDS011;40963;52.168;21.296;2023-07-13T01:18:17;20.08;;;14.50;;
55063;SDS011;40963;52.168;21.296;2023-07-13T01:20:50;19.55;;;13.45;;
55063;SDS011;40963;52.168;21.296;2023-07-13T01:23:27;22.15;;;13.80;;
55063;SDS011;40963;52.168;21.296;2023-07-13T01:25:53;19.27;;;14.07;;
55063;SDS011;40963;52.168;21.296;2023-07-13T01:28:20;24.50;;;14.38;;
55063;SDS011;40963;52.168;21.296;2023-07-13T01:30:47;21.48;;;14.68;;
55063;SDS011;40963;52.168;21.296;2023-07-13T01:33:14;22.52;;;14.65;;
55063;SDS011;40963;52.168;21.296;2023-07-13T01:35:41;20.77;;;13.70;;
55063;SDS011;40963;52.168;21.296;2023-07-13T01:38:08;21.58;;;14.45;;
55063;SDS011;40963;52.168;21.296;2023-07-13T01:40:35;21.00;;;14.20;;
55063;SDS011;40963;52.168;21.296;2023-07-13T01:43:01;28.55;;;14.32;;
55063;SDS011;40963;52.168;21.296;2023-07-13T01:45:27;23.85;;;14.70;;
55063;SDS011;40963;52.168;21.296;2023-07-13T01:47:53;21.88;;;13.98;;
55063;SDS011;40963;52.168;21.296;2023-07-13T01:50:19;21.35;;;14.27;;
55063;SDS011;40963;52.168;21.296;2023-07-13T01:52:44;21.77;;;13.77;;
55063;SDS011;40963;52.168;21.296;2023-07-13T01:55:10;20.33;;;14.40;;
55063;SDS011;40963;52.168;21.296;2023-07-13T01:57:36;18.63;;;13.43;;
55063;SDS011;40963;52.168;21.296;2023-07-13T02:00:03;18.98;;;12.93;;
55063;SDS011;40963;52.168;21.296;2023-07-13T02:02:29;18.13;;;13.35;;
55063;SDS011;40963;52.168;21.296;2023-07-13T02:04:56;15.95;;;12.52;;
55063;SDS011;40963;52.168;21.296;2023-07-13T02:07:21;20.35;;;13.98;;
55063;SDS011;40963;52.168;21.296;2023-07-13T02:09:47;20.65;;;14.23;;
55063;SDS011;40963;52.168;21.296;2023-07-13T02:12:13;20.35;;;13.68;;
55063;SDS011;40963;52.168;21.296;2023-07-13T02:14:38;19.42;;;13.13;;
55063;SDS011;40963;52.168;21.296;2023-07-13T02:17:04;18.33;;;13.38;;
55063;SDS011;40963;52.168;21.296;2023-07-13T02:19:30;25.50;;;14.07;;
55063;SDS011;40963;52.168;21.296;2023-07-13T02:21:56;19.85;;;13.30;;
55063;SDS011;40963;52.168;21.296;2023-07-13T02:24:22;22.65;;;14.02;;
55063;SDS011;40963;52.168;21.296;2023-07-13T02:26:47;22.63;;;14.30;;
55063;SDS011;40963;52.168;21.296;2023-07-13T02:29:13;19.95;;;13.85;;
55063;SDS011;40963;52.168;21.296;2023-07-13T02:31:39;21.08;;;13.80;;
55063;SDS011;40963;52.168;21.296;2023-07-13T02:34:05;18.33;;;13.18;;
55063;SDS011;40963;52.168;21.296;2023-07-13T02:36:30;20.13;;;13.15;;
55063;SDS011;40963;52.168;21.296;2023-07-13T02:38:57;19.20;;;13.30;;
55063;SDS011;40963;52.168;21.296;2023-07-13T02:41:26;20.85;;;12.73;;
55063;SDS011;40963;52.168;21.296;2023-07-13T02:43:51;19.17;;;12.88;;
55063;SDS011;40963;52.168;21.296;2023-07-13T02:46:17;24.02;;;13.50;;
55063;SDS011;40963;52.168;21.296;2023-07-13T02:48:44;18.40;;;13.20;;
55063;SDS011;40963;52.168;21.296;2023-07-13T02:51:10;19.83;;;13.52;;
55063;SDS011;40963;52.168;21.296;2023-07-13T02:53:36;21.35;;;12.68;;
55063;SDS011;40963;52.168;21.296;2023-07-13T02:56:03;19.33;;;13.70;;
55063;SDS011;40963;52.168;21.296;2023-07-13T02:58:29;18.92;;;13.30;;
55063;SDS011;40963;52.168;21.296;2023-07-13T03:00:56;20.45;;;13.52;;
55063;SDS011;40963;52.168;21.296;2023-07-13T03:03:22;16.98;;;12.32;;
55063;SDS011;40963;52.168;21.296;2023-07-13T03:05:48;16.75;;;12.00;;
55063;SDS011;40963;52.168;21.296;2023-07-13T03:08:25;21.00;;;12.15;;
55063;SDS011;40963;52.168;21.296;2023-07-13T03:13:46;22.60;;;13.25;;
55063;SDS011;40963;52.168;21.296;2023-07-13T03:16:12;23.95;;;13.88;;
55063;SDS011;40963;52.168;21.296;2023-07-13T03:18:40;19.83;;;13.65;;
55063;SDS011;40963;52.168;21.296;2023-07-13T03:21:06;19.48;;;12.95;;
55063;SDS011;40963;52.168;21.296;2023-07-13T03:23:32;21.27;;;12.43;;
55063;SDS011;40963;52.168;21.296;2023-07-13T03:26:05;19.13;;;13.27;;
55063;SDS011;40963;52.168;21.296;2023-07-13T03:28:43;19.77;;;12.60;;
55063;SDS011;40963;52.168;21.296;2023-07-13T03:31:10;18.08;;;12.90;;
55063;SDS011;40963;52.168;21.296;2023-07-13T03:33:38;16.75;;;13.05;;
55063;SDS011;40963;52.168;21.296;2023-07-13T03:36:04;17.10;;;11.93;;
55063;SDS011;40963;52.168;21.296;2023-07-13T03:38:31;16.23;;;12.55;;
55063;SDS011;40963;52.168;21.296;2023-07-13T03:40:57;17.70;;;12.52;;
55063;SDS011;40963;52.168;21.296;2023-07-13T03:43:23;16.23;;;12.55;;
55063;SDS011;40963;52.168;21.296;2023-07-13T03:45:49;22.25;;;12.80;;
55063;SDS011;40963;52.168;21.296;2023-07-13T03:48:14;20.58;;;12.35;;
55063;SDS011;40963;52.168;21.296;2023-07-13T03:50:40;19.25;;;12.25;;
55063;SDS011;40963;52.168;21.296;2023-07-13T03:53:06;24.17;;;13.43;;
55063;SDS011;40963;52.168;21.296;2023-07-13T03:55:32;15.35;;;12.35;;
55063;SDS011;40963;52.168;21.296;2023-07-13T03:57:58;15.32;;;11.90;;
55063;SDS011;40963;52.168;21.296;2023-07-13T04:00:26;18.52;;;12.73;;
55063;SDS011;40963;52.168;21.296;2023-07-13T04:02:51;19.83;;;12.98;;
55063;SDS011;40963;52.168;21.296;2023-07-13T04:05:17;17.92;;;13.35;;
55063;SDS011;40963;52.168;21.296;2023-07-13T04:07:43;16.45;;;11.95;;
55063;SDS011;40963;52.168;21.296;2023-07-13T04:10:09;17.50;;;12.73;;
55063;SDS011;40963;52.168;21.296;2023-07-13T04:12:34;17.60;;;12.43;;
55063;SDS011;40963;52.168;21.296;2023-07-13T04:15:00;21.95;;;13.10;;
55063;SDS011;40963;52.168;21.296;2023-07-13T04:17:26;19.65;;;12.68;;
55063;SDS011;40963;52.168;21.296;2023-07-13T04:19:51;21.35;;;12.95;;
55063;SDS011;40963;52.168;21.296;2023-07-13T04:22:17;16.45;;;12.35;;
55063;SDS011;40963;52.168;21.296;2023-07-13T04:24:42;20.50;;;12.73;;
55063;SDS011;40963;52.168;21.296;2023-07-13T04:27:08;25.40;;;12.60;;
55063;SDS011;40963;52.168;21.296;2023-07-13T04:29:34;18.20;;;13.02;;
55063;SDS011;40963;52.168;21.296;2023-07-13T04:32:00;22.55;;;13.57;;
55063;SDS011;40963;52.168;21.296;2023-07-13T04:34:26;18.45;;;12.90;;
55063;SDS011;40963;52.168;21.296;2023-07-13T04:36:52;16.65;;;12.68;;
55063;SDS011;40963;52.168;21.296;2023-07-13T04:39:18;20.98;;;12.77;;
55063;SDS011;40963;52.168;21.296;2023-07-13T04:41:43;16.65;;;12.38;;
55063;SDS011;40963;52.168;21.296;2023-07-13T04:44:09;17.23;;;12.05;;
55063;SDS011;40963;52.168;21.296;2023-07-13T04:46:34;18.85;;;12.32;;
55063;SDS011;40963;52.168;21.296;2023-07-13T04:49:00;19.08;;;12.82;;
55063;SDS011;40963;52.168;21.296;2023-07-13T04:51:28;17.55;;;12.38;;
55063;SDS011;40963;52.168;21.296;2023-07-13T04:53:53;20.17;;;12.90;;
55063;SDS011;40963;52.168;21.296;2023-07-13T04:56:19;25.38;;;13.93;;
55063;SDS011;40963;52.168;21.296;2023-07-13T04:58:45;23.75;;;13.57;;
55063;SDS011;40963;52.168;21.296;2023-07-13T05:01:10;17.67;;;12.77;;
55063;SDS011;40963;52.168;21.296;2023-07-13T05:03:36;22.42;;;13.02;;
55063;SDS011;40963;52.168;21.296;2023-07-13T05:06:03;19.67;;;13.23;;
55063;SDS011;40963;52.168;21.296;2023-07-13T05:08:30;21.17;;;13.90;;
55063;SDS011;40963;52.168;21.296;2023-07-13T05:10:55;18.70;;;12.55;;
55063;SDS011;40963;52.168;21.296;2023-07-13T05:13:21;20.80;;;13.20;;
55063;SDS011;40963;52.168;21.296;2023-07-13T05:15:55;16.15;;;12.95;;
55063;SDS011;40963;52.168;21.296;2023-07-13T05:18:25;20.60;;;13.75;;
55063;SDS011;40963;52.168;21.296;2023-07-13T05:20:56;18.42;;;14.07;;
55063;SDS011;40963;52.168;21.296;2023-07-13T05:23:27;18.65;;;13.30;;
55063;SDS011;40963;52.168;21.296;2023-07-13T05:25:52;19.48;;;14.20;;
55063;SDS011;40963;52.168;21.296;2023-07-13T05:28:18;20.10;;;13.88;;
55063;SDS011;40963;52.168;21.296;2023-07-13T05:30:48;18.88;;;12.70;;
55063;SDS011;40963;52.168;21.296;2023-07-13T05:33:14;23.15;;;13.98;;
55063;SDS011;40963;52.168;21.296;2023-07-13T05:35:40;20.33;;;14.75;;
55063;SDS011;40963;52.168;21.296;2023-07-13T05:38:05;20.27;;;13.40;;
55063;SDS011;40963;52.168;21.296;2023-07-13T05:40:31;19.80;;;13.57;;
55063;SDS011;40963;52.168;21.296;2023-07-13T05:42:57;19.15;;;13.27;;
55063;SDS011;40963;52.168;21.296;2023-07-13T05:45:23;18.95;;;14.10;;
55063;SDS011;40963;52.168;21.296;2023-07-13T05:47:48;21.58;;;12.98;;
55063;SDS011;40963;52.168;21.296;2023-07-13T05:50:14;22.65;;;14.25;;
55063;SDS011;40963;52.168;21.296;2023-07-13T05:52:39;20.23;;;15.10;;
55063;SDS011;40963;52.168;21.296;2023-07-13T05:55:05;24.23;;;15.68;;
55063;SDS011;40963;52.168;21.296;2023-07-13T05:57:31;26.88;;;16.63;;
55063;SDS011;40963;52.168;21.296;2023-07-13T05:59:57;27.60;;;17.00;;
55063;SDS011;40963;52.168;21.296;2023-07-13T06:02:22;22.05;;;15.40;;
55063;SDS011;40963;52.168;21.296;2023-07-13T06:04:48;19.42;;;14.63;;
55063;SDS011;40963;52.168;21.296;2023-07-13T06:07:14;20.45;;;13.77;;
55063;SDS011;40963;52.168;21.296;2023-07-13T06:09:39;20.30;;;16.00;;
55063;SDS011;40963;52.168;21.296;2023-07-13T06:12:05;19.17;;;15.05;;
55063;SDS011;40963;52.168;21.296;2023-07-13T06:14:31;20.48;;;14.13;;
55063;SDS011;40963;52.168;21.296;2023-07-13T06:16:56;18.20;;;13.77;;
55063;SDS011;40963;52.168;21.296;2023-07-13T06:19:22;22.10;;;14.32;;
55063;SDS011;40963;52.168;21.296;2023-07-13T06:21:48;17.45;;;12.48;;
55063;SDS011;40963;52.168;21.296;2023-07-13T06:24:13;20.13;;;13.90;;
55063;SDS011;40963;52.168;21.296;2023-07-13T06:26:39;22.92;;;14.55;;
55063;SDS011;40963;52.168;21.296;2023-07-13T06:29:04;18.13;;;13.55;;
55063;SDS011;40963;52.168;21.296;2023-07-13T06:31:30;16.45;;;12.65;;
55063;SDS011;40963;52.168;21.296;2023-07-13T06:33:56;19.25;;;11.73;;
55063;SDS011;40963;52.168;21.296;2023-07-13T06:36:22;18.13;;;9.98;;
55063;SDS011;40963;52.168;21.296;2023-07-13T06:38:47;15.82;;;9.43;;
55063;SDS011;40963;52.168;21.296;2023-07-13T06:41:13;13.73;;;9.38;;
55063;SDS011;40963;52.168;21.296;2023-07-13T06:43:39;10.77;;;8.50;;
55063;SDS011;40963;52.168;21.296;2023-07-13T06:46:05;11.93;;;9.02;;
55063;SDS011;40963;52.168;21.296;2023-07-13T06:48:31;11.15;;;8.30;;
55063;SDS011;40963;52.168;21.296;2023-07-13T06:50:57;11.32;;;7.85;;
55063;SDS011;40963;52.168;21.296;2023-07-13T06:53:22;10.82;;;6.72;;
55063;SDS011;40963;52.168;21.296;2023-07-13T06:55:48;10.32;;;7.45;;
55063;SDS011;40963;52.168;21.296;2023-07-13T06:58:15;9.60;;;7.55;;
55063;SDS011;40963;52.168;21.296;2023-07-13T07:00:42;14.15;;;7.32;;
55063;SDS011;40963;52.168;21.296;2023-07-13T07:03:08;9.20;;;6.60;;
55063;SDS011;40963;52.168;21.296;2023-07-13T07:05:33;9.52;;;6.00;;
55063;SDS011;40963;52.168;21.296;2023-07-13T07:07:59;6.85;;;5.78;;
55063;SDS011;40963;52.168;21.296;2023-07-13T07:10:25;7.15;;;5.65;;
55063;SDS011;40963;52.168;21.296;2023-07-13T07:12:51;10.40;;;6.07;;
55063;SDS011;40963;52.168;21.296;2023-07-13T07:15:17;7.32;;;5.82;;
55063;SDS011;40963;52.168;21.296;2023-07-13T07:17:43;7.32;;;5.65;;
55063;SDS011;40963;52.168;21.296;2023-07-13T07:20:09;9.15;;;6.75;;
55063;SDS011;40963;52.168;21.296;2023-07-13T07:22:35;11.55;;;7.00;;
55063;SDS011;40963;52.168;21.296;2023-07-13T07:25:01;11.43;;;6.97;;
55063;SDS011;40963;52.168;21.296;2023-07-13T07:27:26;11.13;;;6.80;;
55063;SDS011;40963;52.168;21.296;2023-07-13T07:29:52;12.05;;;6.75;;
55063;SDS011;40963;52.168;21.296;2023-07-13T07:32:19;9.80;;;6.75;;
55063;SDS011;40963;52.168;21.296;2023-07-13T07:34:45;11.10;;;7.07;;
55063;SDS011;40963;52.168;21.296;2023-07-13T07:37:11;10.90;;;6.60;;
55063;SDS011;40963;52.168;21.296;2023-07-13T07:39:38;9.00;;;6.38;;
55063;SDS011;40963;52.168;21.296;2023-07-13T07:42:04;9.38;;;6.57;;
55063;SDS011;40963;52.168;21.296;2023-07-13T07:44:33;6.97;;;5.13;;
55063;SDS011;40963;52.168;21.296;2023-07-13T07:46:59;8.00;;;5.53;;
55063;SDS011;40963;52.168;21.296;2023-07-13T07:49:25;9.27;;;5.80;;
55063;SDS011;40963;52.168;21.296;2023-07-13T07:51:50;8.55;;;5.25;;
55063;SDS011;40963;52.168;21.296;2023-07-13T07:54:16;6.07;;;5.18;;
55063;SDS011;40963;52.168;21.296;2023-07-13T07:56:42;6.38;;;5.45;;
55063;SDS011;40963;52.168;21.296;2023-07-13T07:59:08;8.18;;;5.40;;
55063;SDS011;40963;52.168;21.296;2023-07-13T08:01:34;6.20;;;5.20;;
55063;SDS011;40963;52.168;21.296;2023-07-13T08:04:00;8.93;;;5.28;;
55063;SDS011;40963;52.168;21.296;2023-07-13T08:06:26;5.80;;;4.75;;
55063;SDS011;40963;52.168;21.296;2023-07-13T08:08:53;6.07;;;4.60;;
55063;SDS011;40963;52.168;21.296;2023-07-13T08:11:20;8.07;;;4.38;;
55063;SDS011;40963;52.168;21.296;2023-07-13T08:13:46;5.18;;;4.00;;
55063;SDS011;40963;52.168;21.296;2023-07-13T08:16:12;5.85;;;4.07;;
55063;SDS011;40963;52.168;21.296;2023-07-13T08:18:38;4.28;;;3.78;;
55063;SDS011;40963;52.168;21.296;2023-07-13T08:21:07;9.45;;;4.13;;
55063;SDS011;40963;52.168;21.296;2023-07-13T08:23:33;3.97;;;3.22;;
55063;SDS011;40963;52.168;21.296;2023-07-13T08:26:00;4.57;;;4.05;;
55063;SDS011;40963;52.168;21.296;2023-07-13T08:28:26;3.90;;;3.22;;
55063;SDS011;40963;52.168;21.296;2023-07-13T08:30:53;5.45;;;4.40;;
55063;SDS011;40963;52.168;21.296;2023-07-13T08:33:19;6.93;;;4.45;;
55063;SDS011;40963;52.168;21.296;2023-07-13T08:35:49;5.38;;;3.72;;
55063;SDS011;40963;52.168;21.296;2023-07-13T08:38:15;5.00;;;3.60;;
55063;SDS011;40963;52.168;21.296;2023-07-13T08:40:42;5.07;;;3.33;;
55063;SDS011;40963;52.168;21.296;2023-07-13T08:43:18;4.07;;;3.53;;
55063;SDS011;40963;52.168;21.296;2023-07-13T08:45:55;6.10;;;3.90;;
55063;SDS011;40963;52.168;21.296;2023-07-13T08:48:27;5.50;;;3.80;;
55063;SDS011;40963;52.168;21.296;2023-07-13T08:51:04;5.35;;;3.78;;
55063;SDS011;40963;52.168;21.296;2023-07-13T08:53:49;7.63;;;4.47;;
55063;SDS011;40963;52.168;21.296;2023-07-13T08:56:23;6.68;;;4.30;;
55063;SDS011;40963;52.168;21.296;2023-07-13T08:58:53;4.65;;;4.05;;
55063;SDS011;40963;52.168;21.296;2023-07-13T09:01:28;5.43;;;4.03;;
55063;SDS011;40963;52.168;21.296;2023-07-13T09:04:00;5.25;;;4.40;;
55063;SDS011;40963;52.168;21.296;2023-07-13T09:06:37;5.82;;;4.18;;
55063;SDS011;40963;52.168;21.296;2023-07-13T09:14:53;5.95;;;4.53;;
55063;SDS011;40963;52.168;21.296;2023-07-13T09:17:23;10.43;;;4.57;;
55063;SDS011;40963;52.168;21.296;2023-07-13T09:19:58;5.97;;;4.53;;
55063;SDS011;40963;52.168;21.296;2023-07-13T09:22:29;6.75;;;4.70;;
55063;SDS011;40963;52.168;21.296;2023-07-13T09:25:04;5.85;;;4.43;;
55063;SDS011;40963;52.168;21.296;2023-07-13T09:27:43;6.97;;;4.45;;
55063;SDS011;40963;52.168;21.296;2023-07-13T09:32:42;6.55;;;4.75;;
55063;SDS011;40963;52.168;21.296;2023-07-13T09:35:12;6.32;;;5.20;;
55063;SDS011;40963;52.168;21.296;2023-07-13T09:37:43;6.55;;;4.90;;
55063;SDS011;40963;52.168;21.296;2023-07-13T09:40:11;5.43;;;4.93;;
55063;SDS011;40963;52.168;21.296;2023-07-13T09:42:43;6.35;;;5.35;;
55063;SDS011;40963;52.168;21.296;2023-07-13T09:45:10;10.05;;;5.47;;
55063;SDS011;40963;52.168;21.296;2023-07-13T09:47:39;7.35;;;5.97;;
55063;SDS011;40963;52.168;21.296;2023-07-13T09:50:12;6.18;;;5.30;;
55063;SDS011;40963;52.168;21.296;2023-07-13T09:52:48;10.00;;;5.80;;
55063;SDS011;40963;52.168;21.296;2023-07-13T09:58:04;7.25;;;5.20;;
55063;SDS011;40963;52.168;21.296;2023-07-13T10:00:35;8.73;;;5.78;;
55063;SDS011;40963;52.168;21.296;2023-07-13T10:03:05;7.15;;;5.60;;
55063;SDS011;40963;52.168;21.296;2023-07-13T10:05:44;7.53;;;5.80;;
55063;SDS011;40963;52.168;21.296;2023-07-13T10:11:10;9.93;;;3.60;;
55063;SDS011;40963;52.168;21.296;2023-07-13T10:13:53;3.83;;;3.30;;
55063;SDS011;40963;52.168;21.296;2023-07-13T10:16:35;3.70;;;3.10;;
55063;SDS011;40963;52.168;21.296;2023-07-13T10:19:02;9.60;;;3.50;;
55063;SDS011;40963;52.168;21.296;2023-07-13T10:21:55;5.00;;;3.63;;
55063;SDS011;40963;52.168;21.296;2023-07-13T10:24:24;11.25;;;3.65;;
55063;SDS011;40963;52.168;21.296;2023-07-13T10:26:53;4.07;;;2.80;;
55063;SDS011;40963;52.168;21.296;2023-07-13T10:29:24;7.57;;;2.85;;
55063;SDS011;40963;52.168;21.296;2023-07-13T10:31:52;6.43;;;2.78;;
55063;SDS011;40963;52.168;21.296;2023-07-13T10:34:18;2.60;;;2.40;;
55063;SDS011;40963;52.168;21.296;2023-07-13T10:36:45;4.72;;;2.78;;
55063;SDS011;40963;52.168;21.296;2023-07-13T10:39:26;3.30;;;2.85;;
55063;SDS011;40963;52.168;21.296;2023-07-13T10:41:54;3.40;;;2.92;;
55063;SDS011;40963;52.168;21.296;2023-07-13T10:44:24;3.28;;;2.97;;
55063;SDS011;40963;52.168;21.296;2023-07-13T10:46:54;3.30;;;2.92;;
55063;SDS011;40963;52.168;21.296;2023-07-13T10:49:22;9.40;;;3.00;;
55063;SDS011;40963;52.168;21.296;2023-07-13T10:51:53;3.75;;;2.80;;
55063;SDS011;40963;52.168;21.296;2023-07-13T10:54:20;3.78;;;2.90;;
55063;SDS011;40963;52.168;21.296;2023-07-13T10:56:52;10.43;;;3.28;;
55063;SDS011;40963;52.168;21.296;2023-07-13T10:59:33;3.17;;;2.63;;
55063;SDS011;40963;52.168;21.296;2023-07-13T11:02:08;2.88;;;2.63;;
55063;SDS011;40963;52.168;21.296;2023-07-13T11:04:40;4.05;;;2.50;;
55063;SDS011;40963;52.168;21.296;2023-07-13T11:07:22;3.72;;;2.83;;
55063;SDS011;40963;52.168;21.296;2023-07-13T11:09:50;2.85;;;2.53;;
55063;SDS011;40963;52.168;21.296;2023-07-13T11:20:31;4.53;;;2.85;;
55063;SDS011;40963;52.168;21.296;2023-07-13T11:25:42;3.35;;;3.05;;
55063;SDS011;40963;52.168;21.296;2023-07-13T11:33:18;12.07;;;3.78;;
55063;SDS011;40963;52.168;21.296;2023-07-13T11:35:51;6.60;;;3.85;;
55063;SDS011;40963;52.168;21.296;2023-07-13T11:40:55;4.53;;;3.30;;
55063;SDS011;40963;52.168;21.296;2023-07-13T11:43:28;10.80;;;3.60;;
55063;SDS011;40963;52.168;21.296;2023-07-13T11:45:53;4.25;;;3.17;;
55063;SDS011;40963;52.168;21.296;2023-07-13T11:48:28;5.28;;;3.20;;
55063;SDS011;40963;52.168;21.296;2023-07-13T11:51:01;7.05;;;3.03;;
55063;SDS011;40963;52.168;21.296;2023-07-13T11:53:31;3.47;;;2.97;;
55063;SDS011;40963;52.168;21.296;2023-07-13T11:58:31;6.55;;;3.00;;
55063;SDS011;40963;52.168;21.296;2023-07-13T12:00:58;8.15;;;3.03;;
55063;SDS011;40963;52.168;21.296;2023-07-13T12:03:29;7.07;;;3.20;;
55063;SDS011;40963;52.168;21.296;2023-07-13T12:08:28;4.93;;;3.50;;
55063;SDS011;40963;52.168;21.296;2023-07-13T12:10:59;8.52;;;3.58;;
55063;SDS011;40963;52.168;21.296;2023-07-13T12:13:34;7.55;;;3.92;;
55063;SDS011;40963;52.168;21.296;2023-07-13T12:16:10;11.05;;;4.50;;
55063;SDS011;40963;52.168;21.296;2023-07-13T12:18:41;7.25;;;4.32;;
55063;SDS011;40963;52.168;21.296;2023-07-13T12:21:12;6.85;;;4.10;;
55063;SDS011;40963;52.168;21.296;2023-07-13T12:23:39;6.15;;;3.53;;
55063;SDS011;40963;52.168;21.296;2023-07-13T12:26:09;6.90;;;4.30;;
55063;SDS011;40963;52.168;21.296;2023-07-13T12:28:37;13.30;;;4.35;;
55063;SDS011;40963;52.168;21.296;2023-07-13T12:31:07;7.30;;;4.28;;
55063;SDS011;40963;52.168;21.296;2023-07-13T12:34:02;7.32;;;4.90;;
55063;SDS011;40963;52.168;21.296;2023-07-13T12:36:40;8.32;;;4.60;;
55063;SDS011;40963;52.168;21.296;2023-07-13T12:39:22;6.93;;;4.47;;
55063;SDS011;40963;52.168;21.296;2023-07-13T12:41:51;10.32;;;4.85;;
55063;SDS011;40963;52.168;21.296;2023-07-13T12:44:18;10.57;;;4.63;;
55063;SDS011;40963;52.168;21.296;2023-07-13T12:46:54;7.18;;;4.53;;
55063;SDS011;40963;52.168;21.296;2023-07-13T12:49:23;5.85;;;4.28;;
55063;SDS011;40963;52.168;21.296;2023-07-13T12:51:56;7.60;;;5.45;;
55063;SDS011;40963;52.168;21.296;2023-07-13T12:54:24;6.70;;;5.20;;
55063;SDS011;40963;52.168;21.296;2023-07-13T12:56:50;5.47;;;4.75;;
55063;SDS011;40963;52.168;21.296;2023-07-13T12:59:19;6.95;;;4.68;;
55063;SDS011;40963;52.168;21.296;2023-07-13T13:01:47;7.88;;;4.78;;
55063;SDS011;40963;52.168;21.296;2023-07-13T13:04:14;9.07;;;4.95;;
55063;SDS011;40963;52.168;21.296;2023-07-13T13:06:41;6.47;;;5.50;;
55063;SDS011;40963;52.168;21.296;2023-07-13T13:09:11;10.00;;;4.90;;
55063;SDS011;40963;52.168;21.296;2023-07-13T13:11:39;6.10;;;5.03;;
55063;SDS011;40963;52.168;21.296;2023-07-13T13:14:05;9.52;;;5.07;;
55063;SDS011;40963;52.168;21.296;2023-07-13T13:16:33;8.45;;;5.20;;
55063;SDS011;40963;52.168;21.296;2023-07-13T13:19:10;5.60;;;4.63;;
55063;SDS011;40963;52.168;21.296;2023-07-13T13:21:39;6.80;;;5.18;;
55063;SDS011;40963;52.168;21.296;2023-07-13T13:24:14;6.38;;;5.00;;
55063;SDS011;40963;52.168;21.296;2023-07-13T13:26:42;9.52;;;5.00;;
55063;SDS011;40963;52.168;21.296;2023-07-13T13:29:14;6.20;;;5.15;;
55063;SDS011;40963;52.168;21.296;2023-07-13T13:31:49;6.72;;;5.03;;
55063;SDS011;40963;52.168;21.296;2023-07-13T13:34:15;6.88;;;6.03;;
55063;SDS011;40963;52.168;21.296;2023-07-13T13:36:42;9.75;;;5.88;;
55063;SDS011;40963;52.168;21.296;2023-07-13T13:39:19;10.50;;;5.57;;
55063;SDS011;40963;52.168;21.296;2023-07-13T13:41:45;14.60;;;5.97;;
55063;SDS011;40963;52.168;21.296;2023-07-13T13:44:12;6.88;;;5.82;;
55063;SDS011;40963;52.168;21.296;2023-07-13T13:46:40;9.10;;;6.47;;
55063;SDS011;40963;52.168;21.296;2023-07-13T13:49:08;8.48;;;5.63;;
55063;SDS011;40963;52.168;21.296;2023-07-13T13:51:41;10.70;;;6.57;;
55063;SDS011;40963;52.168;21.296;2023-07-13T13:54:10;17.95;;;7.03;;
55063;SDS011;40963;52.168;21.296;2023-07-13T13:56:41;10.88;;;7.60;;
55063;SDS011;40963;52.168;21.296;2023-07-13T13:59:07;11.93;;;8.00;;
55063;SDS011;40963;52.168;21.296;2023-07-13T14:01:33;11.88;;;8.32;;
55063;SDS011;40963;52.168;21.296;2023-07-13T14:04:00;12.55;;;8.80;;
55063;SDS011;40963;52.168;21.296;2023-07-13T14:06:25;11.77;;;8.23;;
55063;SDS011;40963;52.168;21.296;2023-07-13T14:08:52;12.70;;;8.90;;
55063;SDS011;40963;52.168;21.296;2023-07-13T14:11:20;12.52;;;8.55;;
55063;SDS011;40963;52.168;21.296;2023-07-13T14:14:04;13.38;;;8.45;;
55063;SDS011;40963;52.168;21.296;2023-07-13T14:16:30;12.63;;;8.02;;
55063;SDS011;40963;52.168;21.296;2023-07-13T14:18:57;13.27;;;8.70;;
55063;SDS011;40963;52.168;21.296;2023-07-13T14:21:25;10.82;;;8.70;;
55063;SDS011;40963;52.168;21.296;2023-07-13T14:23:52;12.68;;;8.57;;
55063;SDS011;40963;52.168;21.296;2023-07-13T14:26:21;13.13;;;8.20;;
55063;SDS011;40963;52.168;21.296;2023-07-13T14:28:50;12.30;;;9.07;;
55063;SDS011;40963;52.168;21.296;2023-07-13T14:31:18;21.98;;;10.13;;
55063;SDS011;40963;52.168;21.296;2023-07-13T14:33:44;16.60;;;10.13;;
55063;SDS011;40963;52.168;21.296;2023-07-13T14:36:21;16.77;;;10.60;;
55063;SDS011;40963;52.168;21.296;2023-07-13T14:38:52;22.85;;;9.90;;
55063;SDS011;40963;52.168;21.296;2023-07-13T14:41:18;13.05;;;8.57;;
55063;SDS011;40963;52.168;21.296;2023-07-13T14:43:44;21.25;;;9.35;;
55063;SDS011;40963;52.168;21.296;2023-07-13T14:46:28;12.98;;;8.05;;
55063;SDS011;40963;52.168;21.296;2023-07-13T14:49:00;10.55;;;7.68;;
55063;SDS011;40963;52.168;21.296;2023-07-13T14:51:28;9.07;;;7.03;;
55063;SDS011;40963;52.168;21.296;2023-07-13T14:53:54;9.15;;;6.72;;
55063;SDS011;40963;52.168;21.296;2023-07-13T14:56:20;9.77;;;6.78;;
55063;SDS011;40963;52.168;21.296;2023-07-13T14:58:45;8.77;;;6.53;;
55063;SDS011;40963;52.168;21.296;2023-07-13T15:01:12;8.40;;;6.38;;
55063;SDS011;40963;52.168;21.296;2023-07-13T15:03:44;8.80;;;6.38;;
55063;SDS011;40963;52.168;21.296;2023-07-13T15:06:11;8.45;;;6.40;;
55063;SDS011;40963;52.168;21.296;2023-07-13T15:08:38;11.50;;;6.97;;